RJA262 WSSS-WADL
Flight info
| Callsign | RJA262 |
|---|---|
| Flight time | N/A |
| Altitude | 35000 |
| Route | WSSS/02C KIRDA1A SURGA M635 RAMPY DCT AGUNG AGUN1H WADL/13 |
| Aircraft | A20N/M-DGV/A |
Departure
| Time | N/A |
|---|---|
| Airport | Singapore Changi Airport (WSSS) |
Arrival
| Time | 2026-04-21 08:08 |
|---|---|
| Airport | Lombok International Airport (WADL) |
| Time | Latitude | Longitude | Altitude | Speed | Heading |
|---|---|---|---|---|---|
| 2026-04-21 07:06 | -6.24711 | 113.34188 | 31980 ft | 366 kts | 125° |
| 2026-04-21 07:06 | -6.26402 | 113.36183 | 31960 ft | 368 kts | 141° |
| 2026-04-21 07:06 | -6.28665 | 113.37392 | 31973 ft | 372 kts | 164° |
| 2026-04-21 07:06 | -6.31209 | 113.37680 | 31979 ft | 375 kts | 185° |
| 2026-04-21 07:07 | -6.33764 | 113.37029 | 31981 ft | 377 kts | 205° |
| 2026-04-21 07:07 | -6.35924 | 113.35546 | 31984 ft | 378 kts | 226° |
| 2026-04-21 07:07 | -6.37420 | 113.33419 | 31986 ft | 378 kts | 247° |
| 2026-04-21 07:07 | -6.38082 | 113.30866 | 31988 ft | 378 kts | 268° |
| 2026-04-21 07:08 | -6.37810 | 113.28286 | 31985 ft | 376 kts | 289° |
| 2026-04-21 07:08 | -6.36645 | 113.25932 | 31988 ft | 374 kts | 307° |
| 2026-04-21 07:08 | -6.33477 | 113.21801 | 31982 ft | 373 kts | 308° |
| 2026-04-21 07:09 | -6.30340 | 113.17638 | 31980 ft | 374 kts | 309° |
| 2026-04-21 07:09 | -6.28477 | 113.15837 | 31962 ft | 371 kts | 330° |
| 2026-04-21 07:09 | -6.26118 | 113.14855 | 31974 ft | 368 kts | 351° |
| 2026-04-21 07:10 | -6.23579 | 113.14772 | 31976 ft | 366 kts | 11° |
| 2026-04-21 07:10 | -6.21167 | 113.15578 | 31980 ft | 364 kts | 31° |
| 2026-04-21 07:10 | -6.19208 | 113.17139 | 31982 ft | 363 kts | 50° |
| 2026-04-21 07:10 | -6.17893 | 113.19285 | 31984 ft | 363 kts | 70° |
| 2026-04-21 07:11 | -6.17384 | 113.21772 | 31982 ft | 363 kts | 90° |
| 2026-04-21 07:11 | -6.17746 | 113.24264 | 31952 ft | 362 kts | 109° |
| 2026-04-21 07:11 | -6.18902 | 113.26485 | 31689 ft | 360 kts | 125° |
| 2026-04-21 07:11 | -6.20412 | 113.28494 | 31240 ft | 359 kts | 126° |
| 2026-04-21 07:12 | -6.21915 | 113.30457 | 30782 ft | 358 kts | 126° |
| 2026-04-21 07:12 | -6.23423 | 113.32458 | 30366 ft | 355 kts | 126° |
| 2026-04-21 07:12 | -6.24891 | 113.34431 | 29960 ft | 353 kts | 125° |
| 2026-04-21 07:12 | -6.26358 | 113.36395 | 29548 ft | 350 kts | 125° |
| 2026-04-21 07:13 | -6.27828 | 113.38353 | 29137 ft | 348 kts | 126° |
| 2026-04-21 07:13 | -6.29271 | 113.40274 | 28738 ft | 346 kts | 125° |
| 2026-04-21 07:13 | -6.30701 | 113.42178 | 28353 ft | 343 kts | 125° |
| 2026-04-21 07:13 | -6.32143 | 113.44100 | 27971 ft | 340 kts | 125° |
| 2026-04-21 07:14 | -6.33560 | 113.45992 | 27586 ft | 338 kts | 125° |
| 2026-04-21 07:14 | -6.34975 | 113.47881 | 27195 ft | 335 kts | 126° |
| 2026-04-21 07:14 | -6.36360 | 113.49731 | 26823 ft | 333 kts | 126° |
| 2026-04-21 07:14 | -6.37747 | 113.51582 | 26453 ft | 330 kts | 126° |
| 2026-04-21 07:15 | -6.39117 | 113.53413 | 26079 ft | 328 kts | 126° |
| 2026-04-21 07:15 | -6.40475 | 113.55225 | 25712 ft | 325 kts | 126° |
| 2026-04-21 07:15 | -6.41833 | 113.57037 | 25340 ft | 323 kts | 126° |
| 2026-04-21 07:15 | -6.43190 | 113.58851 | 24976 ft | 320 kts | 126° |
| 2026-04-21 07:16 | -6.44522 | 113.60631 | 24624 ft | 318 kts | 126° |
| 2026-04-21 07:16 | -6.45826 | 113.62375 | 24268 ft | 316 kts | 126° |
| 2026-04-21 07:16 | -6.47140 | 113.64131 | 23905 ft | 314 kts | 126° |
| 2026-04-21 07:16 | -6.48463 | 113.65897 | 23556 ft | 311 kts | 126° |
| 2026-04-21 07:17 | -6.49745 | 113.67610 | 23228 ft | 308 kts | 126° |
| 2026-04-21 07:17 | -6.51031 | 113.69328 | 22892 ft | 306 kts | 126° |
| 2026-04-21 07:17 | -6.52302 | 113.71028 | 22554 ft | 304 kts | 127° |
| 2026-04-21 07:17 | -6.53573 | 113.72729 | 22216 ft | 301 kts | 127° |
| 2026-04-21 07:18 | -6.54831 | 113.74411 | 21881 ft | 300 kts | 127° |
| 2026-04-21 07:18 | -6.56072 | 113.76067 | 21569 ft | 298 kts | 127° |
| 2026-04-21 07:18 | -6.57314 | 113.77724 | 21267 ft | 295 kts | 127° |
| 2026-04-21 07:18 | -6.58533 | 113.79352 | 20964 ft | 292 kts | 127° |
| 2026-04-21 07:19 | -6.59750 | 113.80979 | 20655 ft | 290 kts | 127° |
| 2026-04-21 07:19 | -6.60962 | 113.82599 | 20352 ft | 287 kts | 126° |
| 2026-04-21 07:19 | -6.62151 | 113.84190 | 20054 ft | 285 kts | 126° |
| 2026-04-21 07:19 | -6.63333 | 113.85770 | 19752 ft | 282 kts | 126° |
| 2026-04-21 07:20 | -6.64511 | 113.87345 | 19451 ft | 280 kts | 126° |
| 2026-04-21 07:20 | -6.65678 | 113.88908 | 19137 ft | 278 kts | 126° |
| 2026-04-21 07:20 | -6.66838 | 113.90459 | 18841 ft | 275 kts | 126° |
| 2026-04-21 07:20 | -6.67972 | 113.91978 | 18542 ft | 273 kts | 126° |
| 2026-04-21 07:21 | -6.69105 | 113.93494 | 18232 ft | 271 kts | 126° |
| 2026-04-21 07:21 | -6.70236 | 113.95008 | 17934 ft | 268 kts | 126° |
| 2026-04-21 07:21 | -6.71344 | 113.96491 | 17629 ft | 266 kts | 126° |
| 2026-04-21 07:21 | -6.72464 | 113.97989 | 17327 ft | 264 kts | 126° |
| 2026-04-21 07:22 | -6.73555 | 113.99450 | 17030 ft | 262 kts | 126° |
| 2026-04-21 07:22 | -6.74655 | 114.00922 | 16717 ft | 261 kts | 126° |
| 2026-04-21 07:22 | -6.75734 | 114.02369 | 16396 ft | 260 kts | 126° |
| 2026-04-21 07:22 | -6.76822 | 114.03827 | 16073 ft | 259 kts | 126° |
| 2026-04-21 07:23 | -6.77894 | 114.05263 | 15760 ft | 258 kts | 126° |
| 2026-04-21 07:23 | -6.78962 | 114.06693 | 15453 ft | 256 kts | 126° |
| 2026-04-21 07:23 | -6.80036 | 114.08132 | 15142 ft | 255 kts | 126° |
| 2026-04-21 07:23 | -6.81102 | 114.09558 | 14827 ft | 254 kts | 126° |
| 2026-04-21 07:24 | -6.82148 | 114.10960 | 14510 ft | 253 kts | 126° |
| 2026-04-21 07:24 | -6.83213 | 114.12386 | 14209 ft | 251 kts | 126° |
| 2026-04-21 07:24 | -6.84250 | 114.13775 | 13911 ft | 250 kts | 126° |
| 2026-04-21 07:24 | -6.85293 | 114.15173 | 13634 ft | 247 kts | 126° |
| 2026-04-21 07:25 | -6.86321 | 114.16553 | 13628 ft | 248 kts | 126° |
| 2026-04-21 07:25 | -6.87367 | 114.17955 | 13628 ft | 250 kts | 126° |
| 2026-04-21 07:25 | -6.88412 | 114.19356 | 13625 ft | 249 kts | 126° |
| 2026-04-21 07:25 | -6.89454 | 114.20751 | 13679 ft | 250 kts | 126° |
| 2026-04-21 07:26 | -6.90490 | 114.22140 | 13735 ft | 251 kts | 126° |
| 2026-04-21 07:26 | -6.91547 | 114.23556 | 13762 ft | 251 kts | 126° |
| 2026-04-21 07:26 | -6.92602 | 114.24970 | 13772 ft | 251 kts | 126° |
| 2026-04-21 07:26 | -6.93639 | 114.26359 | 13778 ft | 251 kts | 126° |
| 2026-04-21 07:27 | -6.94696 | 114.27776 | 13783 ft | 250 kts | 126° |
| 2026-04-21 07:27 | -6.95740 | 114.29177 | 13789 ft | 250 kts | 126° |
| 2026-04-21 07:27 | -6.96782 | 114.30575 | 13797 ft | 250 kts | 126° |
| 2026-04-21 07:27 | -6.97829 | 114.31978 | 13802 ft | 250 kts | 126° |
| 2026-04-21 07:28 | -6.98878 | 114.33386 | 13805 ft | 251 kts | 126° |
| 2026-04-21 07:28 | -6.99927 | 114.34793 | 13804 ft | 251 kts | 126° |
| 2026-04-21 07:28 | -7.00976 | 114.36201 | 13807 ft | 251 kts | 126° |
| 2026-04-21 07:28 | -7.02012 | 114.37592 | 13806 ft | 250 kts | 126° |
| 2026-04-21 07:29 | -7.03066 | 114.39005 | 13803 ft | 250 kts | 126° |
| 2026-04-21 07:29 | -7.04110 | 114.40407 | 13803 ft | 251 kts | 126° |
| 2026-04-21 07:29 | -7.05154 | 114.41808 | 13803 ft | 250 kts | 126° |
| 2026-04-21 07:29 | -7.06205 | 114.43217 | 13802 ft | 250 kts | 126° |
| 2026-04-21 07:30 | -7.07254 | 114.44624 | 13807 ft | 250 kts | 126° |
| 2026-04-21 07:30 | -7.08295 | 114.46021 | 13808 ft | 250 kts | 126° |
| 2026-04-21 07:30 | -7.09346 | 114.47431 | 13805 ft | 250 kts | 126° |
| 2026-04-21 07:30 | -7.10380 | 114.48820 | 13803 ft | 250 kts | 126° |
| 2026-04-21 07:31 | -7.11428 | 114.50227 | 13801 ft | 250 kts | 126° |
| 2026-04-21 07:31 | -7.12466 | 114.51622 | 13801 ft | 250 kts | 126° |
| 2026-04-21 07:31 | -7.13518 | 114.53034 | 13796 ft | 251 kts | 126° |
| 2026-04-21 07:31 | -7.14570 | 114.54448 | 13796 ft | 250 kts | 126° |
| 2026-04-21 07:32 | -7.15603 | 114.55837 | 13797 ft | 251 kts | 126° |
| 2026-04-21 07:32 | -7.16660 | 114.57257 | 13793 ft | 251 kts | 126° |
| 2026-04-21 07:32 | -7.17706 | 114.58662 | 13791 ft | 251 kts | 126° |
| 2026-04-21 07:32 | -7.18750 | 114.60064 | 13789 ft | 251 kts | 126° |
| 2026-04-21 07:33 | -7.19804 | 114.61479 | 13786 ft | 251 kts | 126° |
| 2026-04-21 07:33 | -7.20843 | 114.62875 | 13789 ft | 251 kts | 126° |
| 2026-04-21 07:33 | -7.21899 | 114.64292 | 13790 ft | 251 kts | 126° |
| 2026-04-21 07:33 | -7.22943 | 114.65695 | 13793 ft | 250 kts | 126° |
| 2026-04-21 07:34 | -7.23986 | 114.67097 | 13790 ft | 250 kts | 126° |
| 2026-04-21 07:34 | -7.25032 | 114.68504 | 13788 ft | 251 kts | 126° |
| 2026-04-21 07:34 | -7.26076 | 114.69908 | 13787 ft | 251 kts | 126° |
| 2026-04-21 07:34 | -7.27118 | 114.71309 | 13789 ft | 251 kts | 126° |
| 2026-04-21 07:35 | -7.28178 | 114.72734 | 13787 ft | 251 kts | 126° |
| 2026-04-21 07:35 | -7.29223 | 114.74140 | 13789 ft | 252 kts | 126° |
| 2026-04-21 07:35 | -7.30272 | 114.75551 | 13791 ft | 251 kts | 126° |
| 2026-04-21 07:35 | -7.31314 | 114.76952 | 13790 ft | 251 kts | 126° |
| 2026-04-21 07:36 | -7.32363 | 114.78364 | 13786 ft | 251 kts | 126° |
| 2026-04-21 07:36 | -7.33414 | 114.79778 | 13788 ft | 251 kts | 126° |
| 2026-04-21 07:36 | -7.34450 | 114.81171 | 13790 ft | 251 kts | 126° |
| 2026-04-21 07:36 | -7.35509 | 114.82596 | 13790 ft | 251 kts | 126° |
| 2026-04-21 07:37 | -7.36551 | 114.83996 | 13789 ft | 251 kts | 126° |
| 2026-04-21 07:37 | -7.37599 | 114.85406 | 13787 ft | 250 kts | 126° |
| 2026-04-21 07:37 | -7.38634 | 114.86799 | 13788 ft | 251 kts | 126° |
| 2026-04-21 07:37 | -7.39685 | 114.88214 | 13789 ft | 251 kts | 126° |
| 2026-04-21 07:38 | -7.40740 | 114.89634 | 13786 ft | 252 kts | 126° |
| 2026-04-21 07:38 | -7.41786 | 114.91042 | 13781 ft | 251 kts | 126° |
| 2026-04-21 07:38 | -7.42826 | 114.92442 | 13784 ft | 252 kts | 126° |
| 2026-04-21 07:38 | -7.43887 | 114.93870 | 13791 ft | 251 kts | 126° |
| 2026-04-21 07:39 | -7.44932 | 114.95278 | 13790 ft | 251 kts | 126° |
| 2026-04-21 07:39 | -7.45981 | 114.96692 | 13787 ft | 251 kts | 126° |
| 2026-04-21 07:39 | -7.47031 | 114.98104 | 13786 ft | 251 kts | 126° |
| 2026-04-21 07:39 | -7.48072 | 114.99506 | 13787 ft | 250 kts | 126° |
| 2026-04-21 07:40 | -7.49111 | 115.00906 | 13791 ft | 250 kts | 125° |
| 2026-04-21 07:40 | -7.50141 | 115.02290 | 13787 ft | 238 kts | 125° |
| 2026-04-21 07:40 | -7.51116 | 115.03604 | 13800 ft | 242 kts | 125° |
| 2026-04-21 07:40 | -7.52144 | 115.04993 | 13804 ft | 249 kts | 125° |
| 2026-04-21 07:41 | -7.53186 | 115.06397 | 13804 ft | 251 kts | 125° |
| 2026-04-21 07:41 | -7.54230 | 115.07804 | 13804 ft | 251 kts | 126° |
| 2026-04-21 07:41 | -7.55284 | 115.09224 | 13805 ft | 251 kts | 125° |
| 2026-04-21 07:41 | -7.56325 | 115.10627 | 13805 ft | 251 kts | 125° |
| 2026-04-21 07:42 | -7.57380 | 115.12048 | 13804 ft | 251 kts | 125° |
| 2026-04-21 07:42 | -7.58426 | 115.13457 | 13805 ft | 251 kts | 125° |
| 2026-04-21 07:42 | -7.59468 | 115.14861 | 13804 ft | 251 kts | 125° |
| 2026-04-21 07:42 | -7.60513 | 115.16271 | 13803 ft | 251 kts | 125° |
| 2026-04-21 07:43 | -7.61560 | 115.17684 | 13802 ft | 251 kts | 125° |
| 2026-04-21 07:43 | -7.62597 | 115.19083 | 13801 ft | 250 kts | 125° |
| 2026-04-21 07:43 | -7.63643 | 115.20495 | 13800 ft | 251 kts | 125° |
| 2026-04-21 07:43 | -7.64688 | 115.21903 | 13798 ft | 251 kts | 125° |
| 2026-04-21 07:44 | -7.65735 | 115.23313 | 13796 ft | 250 kts | 125° |
| 2026-04-21 07:44 | -7.66782 | 115.24727 | 13794 ft | 250 kts | 125° |
| 2026-04-21 07:44 | -7.67830 | 115.26141 | 13792 ft | 250 kts | 125° |
| 2026-04-21 07:44 | -7.68874 | 115.27550 | 13790 ft | 251 kts | 125° |
| 2026-04-21 07:45 | -7.69908 | 115.28944 | 13789 ft | 251 kts | 125° |
| 2026-04-21 07:45 | -7.70954 | 115.30357 | 13790 ft | 251 kts | 125° |
| 2026-04-21 07:45 | -7.72001 | 115.31770 | 13790 ft | 251 kts | 125° |
| 2026-04-21 07:45 | -7.73057 | 115.33195 | 13789 ft | 251 kts | 125° |
| 2026-04-21 07:46 | -7.74087 | 115.34586 | 13788 ft | 251 kts | 125° |
| 2026-04-21 07:46 | -7.75135 | 115.35999 | 13786 ft | 250 kts | 125° |
| 2026-04-21 07:46 | -7.76178 | 115.37409 | 13783 ft | 250 kts | 125° |
| 2026-04-21 07:46 | -7.77230 | 115.38829 | 13784 ft | 250 kts | 125° |
| 2026-04-21 07:47 | -7.78271 | 115.40235 | 13784 ft | 251 kts | 125° |
| 2026-04-21 07:47 | -7.79317 | 115.41649 | 13783 ft | 251 kts | 125° |
| 2026-04-21 07:47 | -7.80362 | 115.43059 | 13784 ft | 251 kts | 125° |
| 2026-04-21 07:47 | -7.81395 | 115.44455 | 13784 ft | 251 kts | 125° |
| 2026-04-21 07:48 | -7.82440 | 115.45867 | 13784 ft | 251 kts | 125° |
| 2026-04-21 07:48 | -7.83493 | 115.47291 | 13784 ft | 251 kts | 125° |
| 2026-04-21 07:48 | -7.84530 | 115.48691 | 13783 ft | 252 kts | 125° |
| 2026-04-21 07:48 | -7.85582 | 115.50113 | 13783 ft | 252 kts | 125° |
| 2026-04-21 07:49 | -7.86634 | 115.51533 | 13782 ft | 251 kts | 125° |
| 2026-04-21 07:49 | -7.87675 | 115.52939 | 13783 ft | 251 kts | 125° |
| 2026-04-21 07:49 | -7.88720 | 115.54352 | 13783 ft | 250 kts | 125° |
| 2026-04-21 07:49 | -7.89768 | 115.55771 | 13783 ft | 251 kts | 125° |
| 2026-04-21 07:50 | -7.90811 | 115.57180 | 13784 ft | 251 kts | 125° |
| 2026-04-21 07:50 | -7.91843 | 115.58575 | 13783 ft | 250 kts | 125° |
| 2026-04-21 07:50 | -7.92885 | 115.59987 | 13784 ft | 251 kts | 125° |
| 2026-04-21 07:50 | -7.93932 | 115.61403 | 13783 ft | 251 kts | 125° |
| 2026-04-21 07:51 | -7.94978 | 115.62817 | 13783 ft | 251 kts | 125° |
| 2026-04-21 07:51 | -7.96019 | 115.64226 | 13785 ft | 251 kts | 125° |
| 2026-04-21 07:51 | -7.97071 | 115.65649 | 13784 ft | 251 kts | 125° |
| 2026-04-21 07:51 | -7.98112 | 115.67057 | 13785 ft | 251 kts | 125° |
| 2026-04-21 07:52 | -7.99122 | 115.68485 | 13788 ft | 251 kts | 122° |
| 2026-04-21 07:52 | -8.00053 | 115.69965 | 13791 ft | 251 kts | 120° |
| 2026-04-21 07:52 | -8.00962 | 115.71478 | 13797 ft | 250 kts | 119° |
| 2026-04-21 07:52 | -8.01853 | 115.72967 | 13769 ft | 248 kts | 119° |
| 2026-04-21 07:53 | -8.02742 | 115.74451 | 13510 ft | 246 kts | 119° |
| 2026-04-21 07:53 | -8.03631 | 115.75938 | 13167 ft | 247 kts | 119° |
| 2026-04-21 07:53 | -8.04513 | 115.77411 | 12860 ft | 246 kts | 119° |
| 2026-04-21 07:53 | -8.05394 | 115.78881 | 12559 ft | 245 kts | 119° |
| 2026-04-21 07:54 | -8.06271 | 115.80347 | 12257 ft | 244 kts | 119° |
| 2026-04-21 07:54 | -8.07156 | 115.81824 | 11950 ft | 243 kts | 119° |
| 2026-04-21 07:54 | -8.08026 | 115.83278 | 11646 ft | 243 kts | 119° |
| 2026-04-21 07:54 | -8.08893 | 115.84726 | 11345 ft | 242 kts | 119° |
| 2026-04-21 07:55 | -8.09761 | 115.86176 | 11048 ft | 241 kts | 119° |
| 2026-04-21 07:55 | -8.10633 | 115.87633 | 10749 ft | 240 kts | 119° |
| 2026-04-21 07:55 | -8.11498 | 115.89077 | 10449 ft | 240 kts | 119° |
| 2026-04-21 07:55 | -8.12496 | 115.90411 | 10134 ft | 241 kts | 135° |
| 2026-04-21 07:56 | -8.13870 | 115.91382 | 9831 ft | 242 kts | 153° |
| 2026-04-21 07:56 | -8.15469 | 115.91888 | 9530 ft | 243 kts | 171° |
| 2026-04-21 07:56 | -8.17162 | 115.91981 | 9238 ft | 243 kts | 178° |
| 2026-04-21 07:56 | -8.18857 | 115.91980 | 8945 ft | 242 kts | 179° |
| 2026-04-21 07:57 | -8.20544 | 115.91971 | 8648 ft | 242 kts | 178° |
| 2026-04-21 07:57 | -8.22226 | 115.91969 | 8352 ft | 241 kts | 178° |
| 2026-04-21 07:57 | -8.23925 | 115.91975 | 8055 ft | 240 kts | 178° |
| 2026-04-21 07:57 | -8.25589 | 115.91986 | 7766 ft | 240 kts | 178° |
| 2026-04-21 07:58 | -8.27281 | 115.91999 | 7470 ft | 239 kts | 178° |
| 2026-04-21 07:58 | -8.28937 | 115.92014 | 7175 ft | 239 kts | 178° |
| 2026-04-21 07:58 | -8.30594 | 115.92028 | 6896 ft | 237 kts | 178° |
| 2026-04-21 07:58 | -8.32256 | 115.92042 | 6605 ft | 237 kts | 178° |
| 2026-04-21 07:59 | -8.33890 | 115.92055 | 6325 ft | 235 kts | 177° |
| 2026-04-21 07:59 | -8.35499 | 115.92316 | 6025 ft | 233 kts | 158° |
| 2026-04-21 07:59 | -8.36956 | 115.93037 | 5743 ft | 229 kts | 145° |
| 2026-04-21 07:59 | -8.38272 | 115.93916 | 5505 ft | 226 kts | 143° |
| 2026-04-21 08:00 | -8.39587 | 115.94819 | 5490 ft | 228 kts | 143° |
| 2026-04-21 08:00 | -8.40901 | 115.95710 | 5490 ft | 228 kts | 143° |
| 2026-04-21 08:00 | -8.42232 | 115.96600 | 5398 ft | 228 kts | 144° |
| 2026-04-21 08:00 | -8.43575 | 115.97488 | 5277 ft | 228 kts | 144° |
| 2026-04-21 08:01 | -8.44895 | 115.98355 | 5159 ft | 228 kts | 144° |
| 2026-04-21 08:01 | -8.46242 | 115.99238 | 5038 ft | 228 kts | 144° |
| 2026-04-21 08:01 | -8.47564 | 116.00102 | 4921 ft | 228 kts | 144° |
| 2026-04-21 08:02 | -8.50243 | 116.01855 | 4689 ft | 227 kts | 144° |
| 2026-04-21 08:02 | -8.51558 | 116.02715 | 4575 ft | 227 kts | 144° |
| 2026-04-21 08:02 | -8.52886 | 116.03583 | 4472 ft | 226 kts | 144° |
| 2026-04-21 08:02 | -8.54218 | 116.04453 | 4469 ft | 226 kts | 144° |
| 2026-04-21 08:03 | -8.55538 | 116.05317 | 4467 ft | 226 kts | 144° |
| 2026-04-21 08:03 | -8.56856 | 116.06178 | 4470 ft | 225 kts | 144° |
| 2026-04-21 08:03 | -8.58183 | 116.07047 | 4473 ft | 225 kts | 144° |
| 2026-04-21 08:03 | -8.59472 | 116.07892 | 4475 ft | 225 kts | 144° |
| 2026-04-21 08:04 | -8.60675 | 116.08852 | 4456 ft | 224 kts | 132° |
| 2026-04-21 08:04 | -8.61700 | 116.10006 | 4221 ft | 224 kts | 127° |
| 2026-04-21 08:04 | -8.62670 | 116.11237 | 3935 ft | 223 kts | 126° |
| 2026-04-21 08:04 | -8.63628 | 116.12470 | 3650 ft | 223 kts | 126° |
| 2026-04-21 08:05 | -8.64598 | 116.13699 | 3359 ft | 222 kts | 126° |
| 2026-04-21 08:05 | -8.65549 | 116.14886 | 3081 ft | 221 kts | 126° |
| 2026-04-21 08:05 | -8.66495 | 116.16089 | 2806 ft | 220 kts | 126° |
| 2026-04-21 08:05 | -8.67418 | 116.17291 | 2543 ft | 217 kts | 127° |
| 2026-04-21 08:06 | -8.68376 | 116.18455 | 2315 ft | 212 kts | 128° |
| 2026-04-21 08:06 | -8.69314 | 116.19568 | 2060 ft | 206 kts | 130° |
| 2026-04-21 08:06 | -8.70269 | 116.20647 | 1890 ft | 198 kts | 130° |
| 2026-04-21 08:06 | -8.71142 | 116.21674 | 1586 ft | 189 kts | 128° |
| 2026-04-21 08:07 | -8.71942 | 116.22693 | 1311 ft | 180 kts | 128° |
| 2026-04-21 08:07 | -8.72673 | 116.23682 | 1070 ft | 173 kts | 126° |
| 2026-04-21 08:07 | -8.73379 | 116.24606 | 841 ft | 166 kts | 131° |
| 2026-04-21 08:07 | -8.74079 | 116.25457 | 628 ft | 157 kts | 130° |
| 2026-04-21 08:08 | -8.74725 | 116.26291 | 433 ft | 146 kts | 131° |
| 2026-04-21 08:08 | -8.75320 | 116.27026 | 321 ft | 128 kts | 132° |
| 2026-04-21 08:08 | -8.75714 | 116.27512 | 320 ft | 47 kts | 130° |
| 2026-04-21 08:08 | -8.75775 | 116.27583 | 320 ft | 5 kts | 131° |
| 2026-04-21 08:09 | -8.75886 | 116.27741 | 322 ft | 22 kts | 118° |
| 2026-04-21 08:09 | -8.75999 | 116.27827 | 323 ft | 20 kts | 188° |
| 2026-04-21 08:09 | -8.76102 | 116.27751 | 323 ft | 16 kts | 221° |
| 2026-04-21 08:09 | -8.76177 | 116.27673 | 323 ft | 15 kts | 255° |
| 2026-04-21 08:10 | -8.76135 | 116.27586 | 322 ft | 14 kts | 312° |
| 2026-04-21 08:10 | -8.76131 | 116.27581 | 322 ft | 0 kts | 311° |
| 2026-04-21 08:10 | -8.76127 | 116.27576 | 322 ft | 2 kts | 311° |
| 2026-04-21 08:10 | -8.76110 | 116.27557 | 321 ft | 4 kts | 311° |
| 2026-04-21 08:11 | -8.76080 | 116.27526 | 321 ft | 6 kts | 301° |
| 2026-04-21 08:11 | -8.76101 | 116.27492 | 320 ft | 7 kts | 197° |
| 2026-04-21 08:11 | -8.76134 | 116.27477 | 320 ft | 3 kts | 216° |
| 2026-04-21 08:11 | -8.76149 | 116.27466 | 320 ft | 0 kts | 216° |